sensor_id;sensor_type;location;lat;lon;timestamp;temperature;humidity
49052;DHT22;34866;48.670;18.260;2024-01-16T00:01:42;13.20;6451.20
49052;DHT22;34866;48.670;18.260;2024-01-16T00:04:08;13.10;6451.20
49052;DHT22;34866;48.670;18.260;2024-01-16T00:06:41;13.10;6451.20
49052;DHT22;34866;48.670;18.260;2024-01-16T00:09:07;13.10;6451.20
49052;DHT22;34866;48.670;18.260;2024-01-16T00:11:34;13.20;6451.20
49052;DHT22;34866;48.670;18.260;2024-01-16T00:13:59;13.10;6451.20
49052;DHT22;34866;48.670;18.260;2024-01-16T00:16:25;13.10;6451.20
49052;DHT22;34866;48.670;18.260;2024-01-16T00:18:51;13.10;6451.20
49052;DHT22;34866;48.670;18.260;2024-01-16T00:21:16;13.00;460.80
49052;DHT22;34866;48.670;18.260;2024-01-16T00:23:42;13.10;6451.20
49052;DHT22;34866;48.670;18.260;2024-01-16T00:26:07;13.10;6451.20
49052;DHT22;34866;48.670;18.260;2024-01-16T00:28:33;13.20;6451.20
49052;DHT22;34866;48.670;18.260;2024-01-16T00:30:59;13.20;6451.20
49052;DHT22;34866;48.670;18.260;2024-01-16T00:33:25;13.20;332.80
49052;DHT22;34866;48.670;18.260;2024-01-16T00:35:52;13.20;281.60
49052;DHT22;34866;48.670;18.260;2024-01-16T00:38:18;13.20;358.40
49052;DHT22;34866;48.670;18.260;2024-01-16T00:40:44;13.20;128.00
49052;DHT22;34866;48.670;18.260;2024-01-16T00:43:09;13.20;128.00
49052;DHT22;34866;48.670;18.260;2024-01-16T00:45:35;13.30;6476.80
49052;DHT22;34866;48.670;18.260;2024-01-16T00:48:01;13.40;6476.80
49052;DHT22;34866;48.670;18.260;2024-01-16T00:50:27;13.30;6451.20
49052;DHT22;34866;48.670;18.260;2024-01-16T00:52:53;13.30;6476.80
49052;DHT22;34866;48.670;18.260;2024-01-16T00:55:18;13.40;128.00
49052;DHT22;34866;48.670;18.260;2024-01-16T00:57:44;13.30;6451.20
49052;DHT22;34866;48.670;18.260;2024-01-16T01:00:10;13.30;6451.20
49052;DHT22;34866;48.670;18.260;2024-01-16T01:02:37;13.20;128.00
49052;DHT22;34866;48.670;18.260;2024-01-16T01:05:03;13.30;6451.20
49052;DHT22;34866;48.670;18.260;2024-01-16T01:07:28;13.30;6451.20
49052;DHT22;34866;48.670;18.260;2024-01-16T01:09:54;13.30;6451.20
49052;DHT22;34866;48.670;18.260;2024-01-16T01:12:19;13.20;6451.20
49052;DHT22;34866;48.670;18.260;2024-01-16T01:14:45;13.10;6451.20
49052;DHT22;34866;48.670;18.260;2024-01-16T01:17:11;13.10;6451.20
49052;DHT22;34866;48.670;18.260;2024-01-16T01:19:38;13.20;6451.20
49052;DHT22;34866;48.670;18.260;2024-01-16T01:22:04;13.30;6451.20
49052;DHT22;34866;48.670;18.260;2024-01-16T01:24:30;13.20;6451.20
49052;DHT22;34866;48.670;18.260;2024-01-16T01:26:55;13.20;6451.20
49052;DHT22;34866;48.670;18.260;2024-01-16T01:29:21;13.20;6451.20
49052;DHT22;34866;48.670;18.260;2024-01-16T01:31:48;13.20;6451.20
49052;DHT22;34866;48.670;18.260;2024-01-16T01:34:14;13.20;6451.20
49052;DHT22;34866;48.670;18.260;2024-01-16T01:36:39;13.10;6451.20
49052;DHT22;34866;48.670;18.260;2024-01-16T01:39:05;13.10;6451.20
49052;DHT22;34866;48.670;18.260;2024-01-16T01:41:31;13.10;6451.20
49052;DHT22;34866;48.670;18.260;2024-01-16T01:43:56;13.10;6451.20
49052;DHT22;34866;48.670;18.260;2024-01-16T01:46:23;13.10;6451.20
49052;DHT22;34866;48.670;18.260;2024-01-16T01:48:49;13.00;6451.20
49052;DHT22;34866;48.670;18.260;2024-01-16T01:51:18;13.10;6451.20
49052;DHT22;34866;48.670;18.260;2024-01-16T01:53:45;13.10;6451.20
49052;DHT22;34866;48.670;18.260;2024-01-16T01:56:14;13.00;6451.20
49052;DHT22;34866;48.670;18.260;2024-01-16T01:58:43;13.00;6451.20
49052;DHT22;34866;48.670;18.260;2024-01-16T02:01:10;13.10;6451.20
49052;DHT22;34866;48.670;18.260;2024-01-16T02:03:43;13.00;6451.20
49052;DHT22;34866;48.670;18.260;2024-01-16T02:06:09;13.10;6451.20
49052;DHT22;34866;48.670;18.260;2024-01-16T02:08:35;13.00;6451.20
49052;DHT22;34866;48.670;18.260;2024-01-16T02:11:01;13.10;6451.20
49052;DHT22;34866;48.670;18.260;2024-01-16T02:13:28;13.10;6451.20
49052;DHT22;34866;48.670;18.260;2024-01-16T02:15:54;13.10;6451.20
49052;DHT22;34866;48.670;18.260;2024-01-16T02:18:19;13.10;6451.20
49052;DHT22;34866;48.670;18.260;2024-01-16T02:20:46;13.10;6451.20
49052;DHT22;34866;48.670;18.260;2024-01-16T02:23:13;13.20;6451.20
49052;DHT22;34866;48.670;18.260;2024-01-16T02:25:41;13.10;6451.20
49052;DHT22;34866;48.670;18.260;2024-01-16T02:28:07;13.10;6451.20
49052;DHT22;34866;48.670;18.260;2024-01-16T02:30:33;13.00;6451.20
49052;DHT22;34866;48.670;18.260;2024-01-16T02:32:59;13.30;6451.20
49052;DHT22;34866;48.670;18.260;2024-01-16T02:35:25;12.90;6451.20
49052;DHT22;34866;48.670;18.260;2024-01-16T02:37:50;13.10;6451.20
49052;DHT22;34866;48.670;18.260;2024-01-16T02:40:16;13.10;6451.20
49052;DHT22;34866;48.670;18.260;2024-01-16T02:42:42;13.10;6451.20
49052;DHT22;34866;48.670;18.260;2024-01-16T02:45:08;13.10;6451.20
49052;DHT22;34866;48.670;18.260;2024-01-16T02:47:34;13.10;6451.20
49052;DHT22;34866;48.670;18.260;2024-01-16T02:50:00;13.00;6451.20
49052;DHT22;34866;48.670;18.260;2024-01-16T02:52:25;13.00;6451.20
49052;DHT22;34866;48.670;18.260;2024-01-16T02:54:51;13.00;6451.20
49052;DHT22;34866;48.670;18.260;2024-01-16T02:57:17;13.10;6451.20
49052;DHT22;34866;48.670;18.260;2024-01-16T02:59:46;13.10;6451.20
49052;DHT22;34866;48.670;18.260;2024-01-16T03:02:12;13.20;6451.20
49052;DHT22;34866;48.670;18.260;2024-01-16T03:04:38;13.20;6451.20
49052;DHT22;34866;48.670;18.260;2024-01-16T03:07:03;13.10;6451.20
49052;DHT22;34866;48.670;18.260;2024-01-16T03:09:29;13.10;6451.20
49052;DHT22;34866;48.670;18.260;2024-01-16T03:11:55;13.00;6451.20
49052;DHT22;34866;48.670;18.260;2024-01-16T03:14:21;13.10;6451.20
49052;DHT22;34866;48.670;18.260;2024-01-16T03:16:46;13.00;6451.20
49052;DHT22;34866;48.670;18.260;2024-01-16T03:19:12;13.10;6451.20
49052;DHT22;34866;48.670;18.260;2024-01-16T03:21:38;13.10;6451.20
49052;DHT22;34866;48.670;18.260;2024-01-16T03:24:07;12.90;6451.20
49052;DHT22;34866;48.670;18.260;2024-01-16T03:26:32;13.00;6451.20
49052;DHT22;34866;48.670;18.260;2024-01-16T03:28:58;13.10;6451.20
49052;DHT22;34866;48.670;18.260;2024-01-16T03:31:24;13.00;6451.20
49052;DHT22;34866;48.670;18.260;2024-01-16T03:33:50;13.00;6451.20
49052;DHT22;34866;48.670;18.260;2024-01-16T03:36:16;13.00;6451.20
49052;DHT22;34866;48.670;18.260;2024-01-16T03:38:42;12.90;6451.20
49052;DHT22;34866;48.670;18.260;2024-01-16T03:41:10;13.00;6451.20
49052;DHT22;34866;48.670;18.260;2024-01-16T03:43:36;13.00;6451.20
49052;DHT22;34866;48.670;18.260;2024-01-16T03:46:02;13.00;6451.20
49052;DHT22;34866;48.670;18.260;2024-01-16T03:48:27;13.00;6451.20
49052;DHT22;34866;48.670;18.260;2024-01-16T03:50:53;13.00;6451.20
49052;DHT22;34866;48.670;18.260;2024-01-16T03:53:22;13.00;6451.20
49052;DHT22;34866;48.670;18.260;2024-01-16T03:55:48;12.90;6451.20
49052;DHT22;34866;48.670;18.260;2024-01-16T03:58:15;13.00;6451.20
49052;DHT22;34866;48.670;18.260;2024-01-16T04:00:42;12.90;6451.20
49052;DHT22;34866;48.670;18.260;2024-01-16T04:03:08;12.90;6451.20
49052;DHT22;34866;48.670;18.260;2024-01-16T04:05:34;12.90;6451.20
49052;DHT22;34866;48.670;18.260;2024-01-16T04:08:00;12.90;6451.20
49052;DHT22;34866;48.670;18.260;2024-01-16T04:10:26;13.00;6451.20
49052;DHT22;34866;48.670;18.260;2024-01-16T04:12:51;12.90;6451.20
49052;DHT22;34866;48.670;18.260;2024-01-16T04:15:17;12.90;6451.20
49052;DHT22;34866;48.670;18.260;2024-01-16T04:17:43;13.00;6451.20
49052;DHT22;34866;48.670;18.260;2024-01-16T04:20:09;13.00;6451.20
49052;DHT22;34866;48.670;18.260;2024-01-16T04:22:35;13.00;6451.20
49052;DHT22;34866;48.670;18.260;2024-01-16T04:25:01;13.10;6451.20
49052;DHT22;34866;48.670;18.260;2024-01-16T04:27:27;13.10;6451.20
49052;DHT22;34866;48.670;18.260;2024-01-16T04:29:52;13.10;6451.20
49052;DHT22;34866;48.670;18.260;2024-01-16T04:32:18;13.10;6451.20
49052;DHT22;34866;48.670;18.260;2024-01-16T04:34:44;13.10;6451.20
49052;DHT22;34866;48.670;18.260;2024-01-16T04:37:10;13.10;6451.20
49052;DHT22;34866;48.670;18.260;2024-01-16T04:39:36;13.20;6451.20
49052;DHT22;34866;48.670;18.260;2024-01-16T04:42:02;13.20;6451.20
49052;DHT22;34866;48.670;18.260;2024-01-16T04:44:28;13.20;6451.20
49052;DHT22;34866;48.670;18.260;2024-01-16T04:46:53;13.20;6451.20
49052;DHT22;34866;48.670;18.260;2024-01-16T04:49:19;13.20;6451.20
49052;DHT22;34866;48.670;18.260;2024-01-16T04:51:44;13.20;6451.20
49052;DHT22;34866;48.670;18.260;2024-01-16T04:54:11;13.30;6451.20
49052;DHT22;34866;48.670;18.260;2024-01-16T04:56:37;13.60;6451.20
49052;DHT22;34866;48.670;18.260;2024-01-16T04:59:03;13.30;6451.20
49052;DHT22;34866;48.670;18.260;2024-01-16T05:01:28;13.30;6451.20
49052;DHT22;34866;48.670;18.260;2024-01-16T05:03:54;13.30;6451.20
49052;DHT22;34866;48.670;18.260;2024-01-16T05:06:20;13.40;6451.20
49052;DHT22;34866;48.670;18.260;2024-01-16T05:08:47;13.40;6451.20
49052;DHT22;34866;48.670;18.260;2024-01-16T05:11:12;13.40;6451.20
49052;DHT22;34866;48.670;18.260;2024-01-16T05:13:38;13.50;6451.20
49052;DHT22;34866;48.670;18.260;2024-01-16T05:16:04;13.50;6451.20
49052;DHT22;34866;48.670;18.260;2024-01-16T05:18:30;13.50;6451.20
49052;DHT22;34866;48.670;18.260;2024-01-16T05:20:56;13.50;6451.20
49052;DHT22;34866;48.670;18.260;2024-01-16T05:23:22;13.60;6451.20
49052;DHT22;34866;48.670;18.260;2024-01-16T05:25:48;13.60;6451.20
49052;DHT22;34866;48.670;18.260;2024-01-16T05:28:13;13.70;6451.20
49052;DHT22;34866;48.670;18.260;2024-01-16T05:30:39;13.70;6451.20
49052;DHT22;34866;48.670;18.260;2024-01-16T05:33:05;13.70;6451.20
49052;DHT22;34866;48.670;18.260;2024-01-16T05:35:30;38.40;6451.20
49052;DHT22;34866;48.670;18.260;2024-01-16T05:37:56;38.60;6451.20
49052;DHT22;34866;48.670;18.260;2024-01-16T05:40:22;38.60;6451.20
49052;DHT22;34866;48.670;18.260;2024-01-16T05:42:49;38.60;6451.20
49052;DHT22;34866;48.670;18.260;2024-01-16T05:45:15;38.60;6451.20
49052;DHT22;34866;48.670;18.260;2024-01-16T05:47:41;38.60;6451.20
49052;DHT22;34866;48.670;18.260;2024-01-16T05:50:08;38.70;6451.20
49052;DHT22;34866;48.670;18.260;2024-01-16T05:52:34;38.60;6451.20
49052;DHT22;34866;48.670;18.260;2024-01-16T05:55:01;38.90;6451.20
49052;DHT22;34866;48.670;18.260;2024-01-16T05:57:29;38.70;6451.20
49052;DHT22;34866;48.670;18.260;2024-01-16T05:59:57;38.70;6451.20
49052;DHT22;34866;48.670;18.260;2024-01-16T06:02:23;38.60;6451.20
49052;DHT22;34866;48.670;18.260;2024-01-16T06:04:48;38.70;6451.20
49052;DHT22;34866;48.670;18.260;2024-01-16T06:07:14;38.70;6451.20
49052;DHT22;34866;48.670;18.260;2024-01-16T06:09:40;38.80;6451.20
49052;DHT22;34866;48.670;18.260;2024-01-16T06:12:06;38.70;6451.20
49052;DHT22;34866;48.670;18.260;2024-01-16T06:14:35;38.80;6451.20
49052;DHT22;34866;48.670;18.260;2024-01-16T06:17:00;38.70;6451.20
49052;DHT22;34866;48.670;18.260;2024-01-16T06:19:26;38.80;6451.20
49052;DHT22;34866;48.670;18.260;2024-01-16T06:21:52;38.80;6451.20
49052;DHT22;34866;48.670;18.260;2024-01-16T06:24:18;39.20;6451.20
49052;DHT22;34866;48.670;18.260;2024-01-16T06:26:44;38.80;6451.20
49052;DHT22;34866;48.670;18.260;2024-01-16T06:29:09;38.80;6451.20
49052;DHT22;34866;48.670;18.260;2024-01-16T06:31:35;38.80;6451.20
49052;DHT22;34866;48.670;18.260;2024-01-16T06:34:01;38.70;6451.20
49052;DHT22;34866;48.670;18.260;2024-01-16T06:36:27;38.90;6451.20
49052;DHT22;34866;48.670;18.260;2024-01-16T06:38:52;38.80;6451.20
49052;DHT22;34866;48.670;18.260;2024-01-16T06:41:18;38.90;6451.20
49052;DHT22;34866;48.670;18.260;2024-01-16T06:43:44;38.90;6451.20
49052;DHT22;34866;48.670;18.260;2024-01-16T06:46:09;38.80;6451.20
49052;DHT22;34866;48.670;18.260;2024-01-16T06:48:36;38.70;6451.20
49052;DHT22;34866;48.670;18.260;2024-01-16T06:51:05;38.70;6451.20
49052;DHT22;34866;48.670;18.260;2024-01-16T06:53:31;38.80;6451.20
49052;DHT22;34866;48.670;18.260;2024-01-16T06:55:56;38.80;6451.20
49052;DHT22;34866;48.670;18.260;2024-01-16T06:58:22;38.80;6451.20
49052;DHT22;34866;48.670;18.260;2024-01-16T07:00:47;38.90;6451.20
49052;DHT22;34866;48.670;18.260;2024-01-16T07:03:14;38.90;6451.20
49052;DHT22;34866;48.670;18.260;2024-01-16T07:05:40;38.80;6451.20
49052;DHT22;34866;48.670;18.260;2024-01-16T07:08:09;38.80;6451.20
49052;DHT22;34866;48.670;18.260;2024-01-16T07:10:54;38.70;6451.20
49052;DHT22;34866;48.670;18.260;2024-01-16T07:13:19;38.70;6451.20
49052;DHT22;34866;48.670;18.260;2024-01-16T07:15:45;38.80;6451.20
49052;DHT22;34866;48.670;18.260;2024-01-16T07:18:11;38.80;6451.20
49052;DHT22;34866;48.670;18.260;2024-01-16T07:20:37;38.70;6451.20
49052;DHT22;34866;48.670;18.260;2024-01-16T07:23:03;38.60;6451.20
49052;DHT22;34866;48.670;18.260;2024-01-16T07:25:29;38.70;6451.20
49052;DHT22;34866;48.670;18.260;2024-01-16T07:27:55;38.60;6451.20
49052;DHT22;34866;48.670;18.260;2024-01-16T07:30:20;38.70;6451.20
49052;DHT22;34866;48.670;18.260;2024-01-16T07:32:46;38.70;6451.20
49052;DHT22;34866;48.670;18.260;2024-01-16T07:35:12;38.70;6451.20
49052;DHT22;34866;48.670;18.260;2024-01-16T07:37:37;38.70;6451.20
49052;DHT22;34866;48.670;18.260;2024-01-16T07:40:04;38.70;6451.20
49052;DHT22;34866;48.670;18.260;2024-01-16T07:42:32;38.60;6451.20
49052;DHT22;34866;48.670;18.260;2024-01-16T07:45:03;38.50;6451.20
49052;DHT22;34866;48.670;18.260;2024-01-16T07:47:32;38.50;6451.20
49052;DHT22;34866;48.670;18.260;2024-01-16T07:49:59;38.60;6451.20
49052;DHT22;34866;48.670;18.260;2024-01-16T07:52:26;38.60;6451.20
49052;DHT22;34866;48.670;18.260;2024-01-16T07:54:52;38.60;6451.20
49052;DHT22;34866;48.670;18.260;2024-01-16T07:57:18;38.50;6451.20
49052;DHT22;34866;48.670;18.260;2024-01-16T07:59:43;38.50;6451.20
49052;DHT22;34866;48.670;18.260;2024-01-16T08:02:09;38.50;6451.20
49052;DHT22;34866;48.670;18.260;2024-01-16T08:04:35;38.50;6451.20
49052;DHT22;34866;48.670;18.260;2024-01-16T08:07:01;38.40;6451.20
49052;DHT22;34866;48.670;18.260;2024-01-16T08:09:27;38.50;6451.20
49052;DHT22;34866;48.670;18.260;2024-01-16T08:11:53;38.50;6451.20
49052;DHT22;34866;48.670;18.260;2024-01-16T08:14:19;38.50;6451.20
49052;DHT22;34866;48.670;18.260;2024-01-16T08:16:44;38.40;6451.20
49052;DHT22;34866;48.670;18.260;2024-01-16T08:19:10;38.40;6451.20
49052;DHT22;34866;48.670;18.260;2024-01-16T08:21:36;13.70;6451.20
49052;DHT22;34866;48.670;18.260;2024-01-16T08:24:01;13.70;6451.20
49052;DHT22;34866;48.670;18.260;2024-01-16T08:26:28;13.70;6451.20
49052;DHT22;34866;48.670;18.260;2024-01-16T08:28:54;13.70;6451.20
49052;DHT22;34866;48.670;18.260;2024-01-16T08:31:20;13.60;6451.20
49052;DHT22;34866;48.670;18.260;2024-01-16T08:33:46;13.50;6451.20
49052;DHT22;34866;48.670;18.260;2024-01-16T08:36:13;13.50;6451.20
49052;DHT22;34866;48.670;18.260;2024-01-16T08:38:38;13.40;6451.20
49052;DHT22;34866;48.670;18.260;2024-01-16T08:41:04;13.20;6451.20
49052;DHT22;34866;48.670;18.260;2024-01-16T08:43:35;13.30;6451.20
49052;DHT22;34866;48.670;18.260;2024-01-16T08:46:00;13.10;6451.20
49052;DHT22;34866;48.670;18.260;2024-01-16T08:48:26;13.10;6451.20
49052;DHT22;34866;48.670;18.260;2024-01-16T08:50:52;12.90;6451.20
49052;DHT22;34866;48.670;18.260;2024-01-16T08:53:20;0.10;6451.20
49052;DHT22;34866;48.670;18.260;2024-01-16T08:55:48;0.30;6451.20
49052;DHT22;34866;48.670;18.260;2024-01-16T08:58:14;0.50;6451.20
49052;DHT22;34866;48.670;18.260;2024-01-16T09:00:39;0.80;6451.20
49052;DHT22;34866;48.670;18.260;2024-01-16T09:03:05;25.70;6451.20
49052;DHT22;34866;48.670;18.260;2024-01-16T09:05:31;25.80;6451.20
49052;DHT22;34866;48.670;18.260;2024-01-16T09:07:57;26.00;460.80
49052;DHT22;34866;48.670;18.260;2024-01-16T09:10:23;26.10;128.00
49052;DHT22;34866;48.670;18.260;2024-01-16T09:12:49;26.30;128.00
49052;DHT22;34866;48.670;18.260;2024-01-16T09:15:14;26.50;281.60
49052;DHT22;34866;48.670;18.260;2024-01-16T09:17:41;51.20;6476.80
49052;DHT22;34866;48.670;18.260;2024-01-16T09:20:07;51.30;6476.80
49052;DHT22;34866;48.670;18.260;2024-01-16T09:22:33;51.50;6476.80
49052;DHT22;34866;48.670;18.260;2024-01-16T09:24:58;51.70;6476.80
49052;DHT22;34866;48.670;18.260;2024-01-16T09:27:24;51.70;6476.80
49052;DHT22;34866;48.670;18.260;2024-01-16T09:29:51;51.80;6476.80
49052;DHT22;34866;48.670;18.260;2024-01-16T09:32:17;51.90;6476.80
49052;DHT22;34866;48.670;18.260;2024-01-16T09:34:44;52.00;6476.80
49052;DHT22;34866;48.670;18.260;2024-01-16T09:37:10;52.10;6476.80
49052;DHT22;34866;48.670;18.260;2024-01-16T09:39:36;76.80;6476.80
49052;DHT22;34866;48.670;18.260;2024-01-16T09:42:03;76.90;6476.80
49052;DHT22;34866;48.670;18.260;2024-01-16T09:44:29;77.00;6476.80
49052;DHT22;34866;48.670;18.260;2024-01-16T09:46:55;77.10;6476.80
49052;DHT22;34866;48.670;18.260;2024-01-16T09:49:23;77.30;6476.80
49052;DHT22;34866;48.670;18.260;2024-01-16T09:51:49;77.20;6476.80
49052;DHT22;34866;48.670;18.260;2024-01-16T09:54:15;77.40;6476.80
49052;DHT22;34866;48.670;18.260;2024-01-16T09:56:43;77.40;6476.80
49052;DHT22;34866;48.670;18.260;2024-01-16T09:59:09;77.50;6476.80
49052;DHT22;34866;48.670;18.260;2024-01-16T10:01:38;77.50;6476.80
49052;DHT22;34866;48.670;18.260;2024-01-16T10:04:04;77.60;6476.80
49052;DHT22;34866;48.670;18.260;2024-01-16T10:06:31;77.70;6476.80
49052;DHT22;34866;48.670;18.260;2024-01-16T10:08:59;77.70;6476.80
49052;DHT22;34866;48.670;18.260;2024-01-16T10:11:25;102.40;6476.80
49052;DHT22;34866;48.670;18.260;2024-01-16T10:13:51;102.50;6476.80
49052;DHT22;34866;48.670;18.260;2024-01-16T10:16:16;102.50;6476.80
49052;DHT22;34866;48.670;18.260;2024-01-16T10:18:42;102.70;6476.80
49052;DHT22;34866;48.670;18.260;2024-01-16T10:21:22;102.70;6476.80
49052;DHT22;34866;48.670;18.260;2024-01-16T10:23:49;102.60;6476.80
49052;DHT22;34866;48.670;18.260;2024-01-16T10:26:14;102.50;6476.80
49052;DHT22;34866;48.670;18.260;2024-01-16T10:28:42;102.60;6476.80
49052;DHT22;34866;48.670;18.260;2024-01-16T10:31:10;102.70;6476.80
49052;DHT22;34866;48.670;18.260;2024-01-16T10:33:36;102.60;6476.80
49052;DHT22;34866;48.670;18.260;2024-01-16T10:38:41;102.70;6476.80
49052;DHT22;34866;48.670;18.260;2024-01-16T10:41:13;102.80;204.80
49052;DHT22;34866;48.670;18.260;2024-01-16T10:43:40;102.90;6476.80
49052;DHT22;34866;48.670;18.260;2024-01-16T10:48:38;102.70;128.00
49052;DHT22;34866;48.670;18.260;2024-01-16T10:51:15;102.70;179.20
49052;DHT22;34866;48.670;18.260;2024-01-16T10:53:44;102.80;153.60
49052;DHT22;34866;48.670;18.260;2024-01-16T10:56:12;102.90;6476.80
49052;DHT22;34866;48.670;18.260;2024-01-16T10:58:43;102.90;6476.80
49052;DHT22;34866;48.670;18.260;2024-01-16T11:01:15;102.80;6476.80
49052;DHT22;34866;48.670;18.260;2024-01-16T11:03:49;102.60;486.40
49052;DHT22;34866;48.670;18.260;2024-01-16T11:06:16;102.50;409.60
49052;DHT22;34866;48.670;18.260;2024-01-16T11:08:45;102.50;6476.80
49052;DHT22;34866;48.670;18.260;2024-01-16T11:11:13;102.50;6476.80
49052;DHT22;34866;48.670;18.260;2024-01-16T11:13:39;102.60;6476.80
49052;DHT22;34866;48.670;18.260;2024-01-16T11:16:08;102.60;6476.80
49052;DHT22;34866;48.670;18.260;2024-01-16T11:18:35;102.70;6476.80
49052;DHT22;34866;48.670;18.260;2024-01-16T11:21:04;102.80;460.80
49052;DHT22;34866;48.670;18.260;2024-01-16T11:23:30;102.80;230.40
49052;DHT22;34866;48.670;18.260;2024-01-16T11:25:56;102.70;409.60
49052;DHT22;34866;48.670;18.260;2024-01-16T11:28:28;102.80;6476.80
49052;DHT22;34866;48.670;18.260;2024-01-16T11:30:57;102.90;153.60
49052;DHT22;34866;48.670;18.260;2024-01-16T11:33:41;103.00;512.00
49052;DHT22;34866;48.670;18.260;2024-01-16T11:39:17;102.80;6476.80
49052;DHT22;34866;48.670;18.260;2024-01-16T11:42:00;103.10;512.00
49052;DHT22;34866;48.670;18.260;2024-01-16T11:47:08;103.30;6476.80
49052;DHT22;34866;48.670;18.260;2024-01-16T11:49:35;128.50;6528.00
49052;DHT22;34866;48.670;18.260;2024-01-16T11:52:01;128.70;6502.40
49052;DHT22;34866;48.670;18.260;2024-01-16T12:07:22;154.50;6502.40
49052;DHT22;34866;48.670;18.260;2024-01-16T12:09:48;154.20;460.80
49052;DHT22;34866;48.670;18.260;2024-01-16T12:12:15;153.90;6502.40
49052;DHT22;34866;48.670;18.260;2024-01-16T12:14:51;153.70;6502.40
49052;DHT22;34866;48.670;18.260;2024-01-16T12:17:18;153.60;128.00
49052;DHT22;34866;48.670;18.260;2024-01-16T12:19:46;153.60;128.00
49052;DHT22;34866;48.670;18.260;2024-01-16T12:22:15;128.90;204.80
49052;DHT22;34866;48.670;18.260;2024-01-16T12:24:42;128.70;230.40
49052;DHT22;34866;48.670;18.260;2024-01-16T12:27:08;128.60;384.00
49052;DHT22;34866;48.670;18.260;2024-01-16T12:29:34;128.70;409.60
49052;DHT22;34866;48.670;18.260;2024-01-16T12:32:13;128.60;6502.40
49052;DHT22;34866;48.670;18.260;2024-01-16T12:34:45;128.60;6502.40
49052;DHT22;34866;48.670;18.260;2024-01-16T12:37:11;128.60;6502.40
49052;DHT22;34866;48.670;18.260;2024-01-16T12:39:38;128.60;281.60
49052;DHT22;34866;48.670;18.260;2024-01-16T12:42:04;128.50;409.60
49052;DHT22;34866;48.670;18.260;2024-01-16T12:44:30;128.40;6502.40
49052;DHT22;34866;48.670;18.260;2024-01-16T12:46:56;128.50;6502.40
49052;DHT22;34866;48.670;18.260;2024-01-16T12:49:23;128.30;6502.40
49052;DHT22;34866;48.670;18.260;2024-01-16T12:51:50;128.30;6502.40
49052;DHT22;34866;48.670;18.260;2024-01-16T12:54:17;128.20;6502.40
49052;DHT22;34866;48.670;18.260;2024-01-16T12:56:44;128.20;6502.40
49052;DHT22;34866;48.670;18.260;2024-01-16T12:59:11;128.10;6502.40
49052;DHT22;34866;48.670;18.260;2024-01-16T13:01:41;128.10;6502.40
49052;DHT22;34866;48.670;18.260;2024-01-16T13:04:07;128.10;6502.40
49052;DHT22;34866;48.670;18.260;2024-01-16T13:06:33;128.10;6502.40
49052;DHT22;34866;48.670;18.260;2024-01-16T13:09:10;128.00;6502.40
49052;DHT22;34866;48.670;18.260;2024-01-16T13:11:49;128.00;6502.40
49052;DHT22;34866;48.670;18.260;2024-01-16T13:14:16;128.00;6502.40
49052;DHT22;34866;48.670;18.260;2024-01-16T13:16:41;103.30;6476.80
49052;DHT22;34866;48.670;18.260;2024-01-16T13:19:07;103.20;6476.80
49052;DHT22;34866;48.670;18.260;2024-01-16T13:21:39;103.20;6476.80
49052;DHT22;34866;48.670;18.260;2024-01-16T13:24:05;103.10;6476.80
49052;DHT22;34866;48.670;18.260;2024-01-16T13:26:30;103.10;6476.80
49052;DHT22;34866;48.670;18.260;2024-01-16T13:28:57;103.10;6476.80
49052;DHT22;34866;48.670;18.260;2024-01-16T13:31:23;103.00;6476.80
49052;DHT22;34866;48.670;18.260;2024-01-16T13:33:49;103.00;6476.80
49052;DHT22;34866;48.670;18.260;2024-01-16T13:36:14;103.00;435.20
49052;DHT22;34866;48.670;18.260;2024-01-16T13:38:41;102.90;6476.80
49052;DHT22;34866;48.670;18.260;2024-01-16T13:41:07;103.00;6476.80
49052;DHT22;34866;48.670;18.260;2024-01-16T13:43:33;102.80;6476.80
49052;DHT22;34866;48.670;18.260;2024-01-16T13:45:58;102.80;6476.80
49052;DHT22;34866;48.670;18.260;2024-01-16T13:48:24;102.80;6476.80
49052;DHT22;34866;48.670;18.260;2024-01-16T13:50:50;102.80;6476.80
49052;DHT22;34866;48.670;18.260;2024-01-16T13:53:16;102.70;6476.80
49052;DHT22;34866;48.670;18.260;2024-01-16T13:55:42;102.70;6476.80
49052;DHT22;34866;48.670;18.260;2024-01-16T13:58:08;102.70;6476.80
49052;DHT22;34866;48.670;18.260;2024-01-16T14:00:34;102.70;6476.80
49052;DHT22;34866;48.670;18.260;2024-01-16T14:02:59;102.50;6476.80
49052;DHT22;34866;48.670;18.260;2024-01-16T14:05:25;102.50;6476.80
49052;DHT22;34866;48.670;18.260;2024-01-16T14:07:52;102.60;6476.80
49052;DHT22;34866;48.670;18.260;2024-01-16T14:10:19;102.60;6476.80
49052;DHT22;34866;48.670;18.260;2024-01-16T14:12:48;102.50;6476.80
49052;DHT22;34866;48.670;18.260;2024-01-16T14:15:16;102.50;6476.80
49052;DHT22;34866;48.670;18.260;2024-01-16T14:17:43;102.50;6476.80
49052;DHT22;34866;48.670;18.260;2024-01-16T14:20:12;102.40;6476.80
49052;DHT22;34866;48.670;18.260;2024-01-16T14:22:39;102.90;6476.80
49052;DHT22;34866;48.670;18.260;2024-01-16T14:25:09;102.40;6476.80
49052;DHT22;34866;48.670;18.260;2024-01-16T14:27:43;77.70;6476.80
49052;DHT22;34866;48.670;18.260;2024-01-16T14:30:14;77.70;6476.80
49052;DHT22;34866;48.670;18.260;2024-01-16T14:32:43;77.70;6476.80
49052;DHT22;34866;48.670;18.260;2024-01-16T14:35:11;77.60;6476.80
49052;DHT22;34866;48.670;18.260;2024-01-16T14:37:39;77.60;6476.80
49052;DHT22;34866;48.670;18.260;2024-01-16T14:40:06;77.50;6476.80
49052;DHT22;34866;48.670;18.260;2024-01-16T14:42:54;77.50;6476.80
49052;DHT22;34866;48.670;18.260;2024-01-16T14:45:25;77.40;6476.80
49052;DHT22;34866;48.670;18.260;2024-01-16T14:47:52;77.40;6476.80
49052;DHT22;34866;48.670;18.260;2024-01-16T14:50:19;77.40;6476.80
49052;DHT22;34866;48.670;18.260;2024-01-16T14:52:48;77.40;6476.80
49052;DHT22;34866;48.670;18.260;2024-01-16T14:55:14;77.50;6476.80
49052;DHT22;34866;48.670;18.260;2024-01-16T14:57:40;77.40;6476.80
49052;DHT22;34866;48.670;18.260;2024-01-16T15:00:17;77.30;6476.80
49052;DHT22;34866;48.670;18.260;2024-01-16T15:02:49;77.20;6476.80
49052;DHT22;34866;48.670;18.260;2024-01-16T15:05:21;77.00;6476.80
49052;DHT22;34866;48.670;18.260;2024-01-16T15:07:48;77.30;6476.80